Time;durP1;ratioP1;P1;durP2;ratioP2;P2;SDS_P1;SDS_P2;PMS_P1;PMS_P2;Temp;Humidity;BMP_temperature;BMP_pressure;BME280_temperature;BME280_humidity;BME280_pressure;Samples;Min_cycle;Max_cycle;Signal;HPM_P1;HPM_P2
2022/03/05 00:00:27;;;;;;;6.13;5.63;;;5.20;25.80;;;;;;20721;6845;117025;-90
2022/03/05 00:02:53;;;;;;;6.82;6.32;;;5.00;26.00;;;;;;20491;6845;309048;-89
2022/03/05 00:05:19;;;;;;;6.33;5.73;;;5.00;26.00;;;;;;20724;6845;117648;-90
2022/03/05 00:07:45;;;;;;;6.30;5.70;;;5.00;25.90;;;;;;20724;6845;117016;-89
2022/03/05 00:10:11;;;;;;;5.40;5.00;;;4.60;26.20;;;;;;20728;6845;117019;-90
2022/03/05 00:12:36;;;;;;;6.90;6.30;;;4.60;26.20;;;;;;20486;6845;308122;-89
2022/03/05 00:15:02;;;;;;;7.07;6.50;;;4.70;26.60;;;;;;20511;6845;308575;-90
2022/03/05 00:17:28;;;;;;;7.00;6.43;;;5.00;26.50;;;;;;20507;6845;311364;-90
2022/03/05 00:19:54;;;;;;;6.80;6.30;;;5.30;26.20;;;;;;20725;6845;117150;-90
2022/03/05 00:22:20;;;;;;;7.43;6.90;;;5.20;26.20;;;;;;20512;6845;308476;-90
2022/03/05 00:24:45;;;;;;;7.00;6.40;;;5.20;26.50;;;;;;20694;6845;117909;-90
2022/03/05 00:27:12;;;;;;;6.50;5.90;;;5.00;26.50;;;;;;20726;6845;117759;-89
2022/03/05 00:29:38;;;;;;;7.40;6.80;;;4.70;26.60;;;;;;20509;6845;338603;-90
2022/03/05 00:32:03;;;;;;;7.82;7.18;;;4.80;27.10;;;;;;20510;6845;312307;-90
2022/03/05 00:34:29;;;;;;;6.73;6.13;;;5.00;27.00;;;;;;20720;6845;118541;-90
2022/03/05 00:36:54;;;;;;;6.37;5.93;;;4.90;26.80;;;;;;20710;6845;117491;-90
2022/03/05 00:39:20;;;;;;;7.63;6.00;;;4.60;26.90;;;;;;20733;6845;117144;-90
2022/03/05 00:41:45;;;;;;;7.55;7.03;;;4.30;27.10;;;;;;20508;6845;283412;-90
2022/03/05 00:44:11;;;;;;;7.45;6.95;;;4.40;27.70;;;;;;20512;6845;319312;-90
2022/03/05 00:46:38;;;;;;;6.80;6.25;;;4.70;27.70;;;;;;20690;6845;117434;-90
2022/03/05 00:49:03;;;;;;;7.70;7.00;;;4.60;27.40;;;;;;20515;6845;315632;-91
2022/03/05 00:51:29;;;;;;;6.77;6.20;;;4.70;27.70;;;;;;20730;6845;117742;-91
2022/03/05 00:53:55;;;;;;;6.60;6.10;;;4.30;27.60;;;;;;20731;6845;117608;-91
2022/03/05 00:56:21;;;;;;;6.23;5.73;;;4.30;27.60;;;;;;20727;6845;117570;-90
2022/03/05 00:58:46;;;;;;;6.30;5.70;;;4.10;27.80;;;;;;20710;6843;117675;-90
2022/03/05 01:01:13;;;;;;;7.53;6.93;;;3.90;27.90;;;;;;20520;6844;309357;-90
2022/03/05 01:03:38;;;;;;;7.37;6.27;;;4.00;28.30;;;;;;20728;6844;120843;-91
2022/03/05 01:06:05;;;;;;;6.50;5.85;;;4.00;28.20;;;;;;20712;6845;117014;-91
2022/03/05 01:08:33;;;;;;;6.47;5.87;;;3.80;28.10;;;;;;20718;6845;117280;-89
2022/03/05 01:10:57;;;;;;;6.27;5.83;;;3.70;28.20;;;;;;20699;6845;118642;-90
2022/03/05 01:13:22;;;;;;;7.27;6.67;;;3.50;28.30;;;;;;20519;6845;282685;-90
2022/03/05 01:15:49;;;;;;;7.45;6.85;;;4.10;28.80;;;;;;20510;6845;307870;-90
2022/03/05 01:18:14;;;;;;;6.77;6.17;;;4.10;28.80;;;;;;20708;6845;117480;-90
2022/03/05 01:20:40;;;;;;;7.37;6.70;;;3.90;28.50;;;;;;20707;6845;121493;-91
2022/03/05 01:23:07;;;;;;;6.73;6.13;;;3.90;28.50;;;;;;20721;6845;118039;-90
2022/03/05 01:25:33;;;;;;;6.63;6.13;;;3.70;28.60;;;;;;20716;6845;117954;-91
2022/03/05 01:27:59;;;;;;;6.32;5.72;;;3.50;28.70;;;;;;20722;6845;117088;-90
2022/03/05 01:30:25;;;;;;;7.00;6.17;;;3.40;28.90;;;;;;20720;6845;117033;-90
2022/03/05 01:32:51;;;;;;;7.90;7.30;;;3.30;29.00;;;;;;20490;6845;304269;-91
2022/03/05 01:35:18;;;;;;;7.50;6.87;;;3.50;29.50;;;;;;20511;6845;307685;-91
2022/03/05 01:37:43;;;;;;;6.80;6.20;;;3.90;29.40;;;;;;20726;6845;117301;-91
2022/03/05 01:40:10;;;;;;;7.70;7.10;;;3.90;29.00;;;;;;20516;6845;279900;-90
2022/03/05 01:42:37;;;;;;;9.00;7.07;;;4.00;29.10;;;;;;20496;6845;341999;-91
2022/03/05 01:45:04;;;;;;;8.17;7.37;;;4.50;28.80;;;;;;20513;6845;304615;-90
2022/03/05 01:47:29;;;;;;;6.80;6.20;;;4.50;28.80;;;;;;20719;6845;117221;-90
2022/03/05 01:49:55;;;;;;;7.93;6.47;;;4.30;28.70;;;;;;20715;6845;120921;-90
2022/03/05 01:52:22;;;;;;;7.47;6.87;;;4.00;29.00;;;;;;20515;6845;281267;-91
2022/03/05 01:54:48;;;;;;;7.83;7.23;;;4.10;29.90;;;;;;20493;6845;308552;-90
2022/03/05 01:57:15;;;;;;;6.47;5.97;;;4.30;29.20;;;;;;20727;6845;117770;-90
2022/03/05 01:59:40;;;;;;;6.70;6.00;;;4.20;29.00;;;;;;20740;6845;117033;-89
2022/03/05 02:02:07;;;;;;;6.72;6.12;;;3.90;29.20;;;;;;20772;6845;116346;-90
2022/03/05 02:04:34;;;;;;;6.43;5.87;;;3.60;29.40;;;;;;20793;6845;117103;-90
2022/03/05 02:06:59;;;;;;;6.53;5.93;;;3.40;29.50;;;;;;20796;6845;67439;-90
2022/03/05 02:09:25;;;;;;;7.70;7.00;;;3.30;29.60;;;;;;20582;6845;283749;-89
2022/03/05 02:11:51;;;;;;;7.70;7.10;;;3.40;30.00;;;;;;20595;6843;277708;-89
2022/03/05 02:14:17;;;;;;;7.90;7.20;;;3.80;29.70;;;;;;20593;6844;310244;-90
2022/03/05 02:16:42;;;;;;;7.87;7.25;;;4.10;29.40;;;;;;20557;6844;280718;-89
2022/03/05 02:19:09;;;;;;;7.85;7.15;;;4.30;29.60;;;;;;20607;6845;277004;-90
2022/03/05 02:21:36;;;;;;;7.07;6.33;;;4.50;29.00;;;;;;20826;6845;67483;-88
2022/03/05 02:24:00;;;;;;;7.37;6.80;;;4.20;28.90;;;;;;20589;6845;277028;-89
2022/03/05 02:26:26;;;;;;;7.55;6.95;;;4.30;29.00;;;;;;20589;6845;316247;-90
2022/03/05 02:28:51;;;;;;;6.80;6.20;;;4.30;29.00;;;;;;20710;6845;117161;-90
2022/03/05 02:31:17;;;;;;;7.80;7.20;;;4.20;29.00;;;;;;20508;6845;307996;-89
2022/03/05 02:33:43;;;;;;;6.50;6.00;;;4.10;29.10;;;;;;20721;6845;121272;-90
2022/03/05 02:36:08;;;;;;;8.00;7.40;;;4.00;28.90;;;;;;20499;6845;338112;-90
2022/03/05 02:38:34;;;;;;;6.70;6.20;;;4.00;29.20;;;;;;20702;6845;127772;-90
2022/03/05 02:40:59;;;;;;;7.07;6.47;;;3.90;29.10;;;;;;20721;6845;116984;-89
2022/03/05 02:43:26;;;;;;;6.77;6.27;;;3.30;29.30;;;;;;20713;6845;117095;-90
2022/03/05 02:45:51;;;;;;;7.00;6.30;;;3.30;29.30;;;;;;20729;6845;117063;-90
2022/03/05 02:48:17;;;;;;;7.93;7.22;;;3.10;29.70;;;;;;20512;6845;307989;-90
2022/03/05 02:50:44;;;;;;;6.93;6.33;;;3.30;30.00;;;;;;20709;6845;117976;-89
2022/03/05 02:53:10;;;;;;;6.77;5.97;;;3.30;29.80;;;;;;20724;6845;117055;-90
2022/03/05 02:55:36;;;;;;;6.87;6.27;;;3.00;29.70;;;;;;20716;6845;117755;-89
2022/03/05 02:58:02;;;;;;;7.53;6.82;;;2.90;29.90;;;;;;20726;6845;117045;-90
2022/03/05 03:00:27;;;;;;;9.10;8.30;;;2.70;29.90;;;;;;20509;6845;338349;-90
2022/03/05 03:02:53;;;;;;;8.60;7.90;;;2.90;30.80;;;;;;20498;6845;337669;-90
2022/03/05 03:05:19;;;;;;;7.87;7.18;;;3.30;30.60;;;;;;20733;6845;117248;-90
2022/03/05 03:07:45;;;;;;;8.73;8.03;;;3.20;30.20;;;;;;20499;6845;298748;-89
2022/03/05 03:10:10;;;;;;;8.50;7.80;;;3.30;30.60;;;;;;20721;6845;117118;-90
2022/03/05 03:12:36;;;;;;;8.77;8.07;;;3.30;30.30;;;;;;20480;6845;338098;-90
2022/03/05 03:15:01;;;;;;;8.63;7.93;;;3.30;30.70;;;;;;20498;6845;318749;-90
2022/03/05 03:17:27;;;;;;;9.35;8.55;;;3.60;30.60;;;;;;20490;6845;308178;-90
2022/03/05 03:19:53;;;;;;;8.93;8.13;;;4.00;30.00;;;;;;20515;6845;294587;-90
2022/03/05 03:22:19;;;;;;;7.87;7.27;;;3.90;30.00;;;;;;20729;6843;118116;-90
2022/03/05 03:24:44;;;;;;;9.73;8.82;;;3.70;29.90;;;;;;20504;6844;308511;-90
2022/03/05 03:27:10;;;;;;;9.35;8.55;;;3.70;30.20;;;;;;20510;6844;308058;-89
2022/03/05 03:29:36;;;;;;;8.80;7.97;;;3.80;30.00;;;;;;20723;6845;117476;-90
2022/03/05 03:32:01;;;;;;;9.33;8.63;;;3.70;30.00;;;;;;20509;6845;308508;-90
2022/03/05 03:34:27;;;;;;;8.03;7.33;;;3.70;30.30;;;;;;20723;6845;117240;-90
2022/03/05 03:36:52;;;;;;;9.47;8.57;;;3.50;30.10;;;;;;20490;6845;307715;-90
2022/03/05 03:39:19;;;;;;;7.77;7.10;;;3.50;30.60;;;;;;20734;6845;117449;-89
2022/03/05 03:41:44;;;;;;;8.27;7.50;;;3.40;30.50;;;;;;20738;6845;116178;-90
2022/03/05 03:44:11;;;;;;;7.85;7.05;;;3.20;30.70;;;;;;20718;6845;116151;-90
2022/03/05 03:46:37;;;;;;;9.33;8.43;;;3.00;31.00;;;;;;20516;6845;278233;-89
2022/03/05 03:49:02;;;;;;;10.10;9.18;;;3.10;31.70;;;;;;20579;6845;306939;-86
2022/03/05 03:51:28;;;;;;;8.90;8.00;;;3.50;31.40;;;;;;20734;6845;117912;-89
2022/03/05 03:53:53;;;;;;;10.15;9.02;;;3.40;31.00;;;;;;20487;6845;313045;-90
2022/03/05 03:56:19;;;;;;;9.63;8.82;;;3.50;31.00;;;;;;20505;6845;323775;-89
2022/03/05 03:58:45;;;;;;;8.80;8.00;;;3.80;30.90;;;;;;20708;6845;117062;-89
2022/03/05 04:01:10;;;;;;;8.27;7.47;;;3.60;30.60;;;;;;20739;6845;117349;-90
2022/03/05 04:03:36;;;;;;;9.83;9.03;;;3.30;30.80;;;;;;20514;6845;312767;-90
2022/03/05 04:06:02;;;;;;;9.80;8.90;;;3.60;30.80;;;;;;20520;6845;282248;-90
2022/03/05 04:08:44;;;;;;;8.47;7.60;;;3.60;30.80;;;;;;20734;6845;119849;-90
2022/03/05 04:11:09;;;;;;;9.93;8.97;;;3.50;30.50;;;;;;20523;6845;311623;-89
2022/03/05 04:13:35;;;;;;;8.93;8.03;;;3.50;30.70;;;;;;20733;6845;117941;-89
2022/03/05 04:16:03;;;;;;;8.50;7.43;;;3.40;30.50;;;;;;20742;6845;117141;-87
2022/03/05 04:18:28;;;;;;;10.10;9.20;;;3.10;30.70;;;;;;20527;6845;295823;-90
2022/03/05 04:21:04;;;;;;;;;;;;;;;;;;;;;
2022/03/05 04:23:40;;;;;;;;;;;;;;;;;;;;;
2022/03/05 04:26:16;;;;;;;;;;;;;;;;;;;;;
2022/03/05 04:31:51;;;;;;;10.33;9.27;;;3.50;31.10;;;;;;21279;6514;93619;-90
2022/03/05 04:34:16;;;;;;;9.37;8.47;;;3.20;31.00;;;;;;20941;6782;117597;-89
2022/03/05 04:36:43;;;;;;;10.63;8.85;;;2.70;31.60;;;;;;20876;6782;119006;-88
2022/03/05 04:39:08;;;;;;;9.53;8.63;;;2.70;31.50;;;;;;20756;6839;117804;-89
2022/03/05 04:41:34;;;;;;;10.57;9.48;;;2.50;31.70;;;;;;20739;6845;121808;-89
2022/03/05 04:43:59;;;;;;;11.70;9.67;;;2.40;32.00;;;;;;20726;6845;117356;-89
2022/03/05 04:46:25;;;;;;;10.53;9.53;;;2.30;32.10;;;;;;20770;6830;118377;-89
2022/03/05 04:48:55;;;;;;;13.03;11.73;;;2.10;32.20;;;;;;20546;6826;340128;-89
2022/03/05 04:51:23;;;;;;;11.87;10.63;;;2.40;33.40;;;;;;20857;6802;117905;-91
2022/03/05 04:53:49;;;;;;;11.10;9.90;;;2.40;32.90;;;;;;20832;6814;117500;-89
2022/03/05 04:56:16;;;;;;;14.05;12.65;;;2.40;33.60;;;;;;20623;6814;310440;-89
2022/03/05 04:58:42;;;;;;;14.83;13.40;;;2.40;33.60;;;;;;20616;6814;306404;-88
2022/03/05 05:01:07;;;;;;;12.68;11.48;;;2.80;33.60;;;;;;20913;6815;67541;-86
2022/03/05 05:03:33;;;;;;;17.02;13.00;;;2.70;33.00;;;;;;20872;6815;116658;-89
2022/03/05 05:06:00;;;;;;;15.68;14.07;;;2.50;32.90;;;;;;20588;6815;306135;-89
2022/03/05 05:08:26;;;;;;;14.87;12.57;;;2.60;33.90;;;;;;20823;6815;117684;-88
2022/03/05 05:10:51;;;;;;;14.82;11.98;;;2.50;33.40;;;;;;20809;6815;117501;-88
2022/03/05 05:13:17;;;;;;;14.07;11.45;;;2.30;33.40;;;;;;20826;6815;117839;-89
2022/03/05 05:15:42;;;;;;;12.50;11.20;;;2.20;33.60;;;;;;20829;6815;117482;-88
2022/03/05 05:18:08;;;;;;;15.30;13.70;;;2.00;33.60;;;;;;20654;6815;306330;-88
2022/03/05 05:20:33;;;;;;;14.97;13.57;;;2.20;35.00;;;;;;20716;6815;287435;-88
2022/03/05 05:22:59;;;;;;;15.90;14.25;;;2.50;34.80;;;;;;20320;6840;292901;-88
2022/03/05 05:25:25;;;;;;;16.03;11.70;;;2.80;34.30;;;;;;20887;6814;116305;-87
2022/03/05 05:27:52;;;;;;;16.02;14.43;;;2.80;33.90;;;;;;20566;6842;282195;-86
2022/03/05 05:30:18;;;;;;;16.17;14.47;;;2.80;34.20;;;;;;20604;6846;289124;-87
2022/03/05 05:32:44;;;;;;;15.93;14.33;;;3.00;34.00;;;;;;20577;6838;312160;-87
2022/03/05 05:35:09;;;;;;;14.93;13.07;;;3.20;33.60;;;;;;20759;6848;117072;-87
2022/03/05 05:37:35;;;;;;;14.75;12.65;;;3.10;33.30;;;;;;20795;6845;116471;-88
2022/03/05 05:40:01;;;;;;;15.53;11.70;;;2.80;33.50;;;;;;20814;6841;116402;-88
2022/03/05 05:42:26;;;;;;;14.93;11.27;;;2.60;33.80;;;;;;20800;6839;116409;-87
2022/03/05 05:44:52;;;;;;;11.83;10.53;;;2.30;33.90;;;;;;20792;6840;117201;-88
2022/03/05 05:47:17;;;;;;;14.13;12.73;;;2.20;34.10;;;;;;20579;6840;277140;-88
2022/03/05 05:49:43;;;;;;;13.73;12.35;;;2.30;34.60;;;;;;20596;6841;309536;-88
2022/03/05 05:52:08;;;;;;;12.40;11.10;;;2.60;34.40;;;;;;20793;6845;120720;-88
2022/03/05 05:54:34;;;;;;;11.80;10.65;;;2.60;33.90;;;;;;20784;6841;116743;-88
2022/03/05 05:57:09;;;;;;;;;;;;;;;;;;;;;
2022/03/05 06:00:21;;;;;;;;;;;;;;;;;;;;;
2022/03/05 06:02:47;;;;;;;14.30;12.90;;;1.90;34.10;;;;;;19420;7103;316541;-88
2022/03/05 06:05:23;;;;;;;14.52;13.13;;;2.20;35.10;;;;;;20211;6793;334810;-89
2022/03/05 06:07:58;;;;;;;14.85;13.30;;;2.50;34.80;;;;;;20563;6737;307632;-89
2022/03/05 06:10:35;;;;;;;12.67;10.97;;;2.80;34.40;;;;;;20715;6753;118205;-90
2022/03/05 06:13:11;;;;;;;15.27;13.77;;;2.70;34.10;;;;;;20463;6759;277687;-88
2022/03/05 06:15:46;;;;;;;15.10;13.60;;;2.70;34.60;;;;;;20436;6759;305786;-94
2022/03/05 06:18:23;;;;;;;12.87;11.47;;;2.90;34.50;;;;;;20675;6770;120047;-90
2022/03/05 06:21:09;;;;;;;;;;;;;;;;;;;;;
2022/03/05 06:23:45;;;;;;;12.67;11.37;;;2.80;34.80;;;;;;20341;6767;68055;-89
2022/03/05 06:26:13;;;;;;;11.67;10.47;;;2.70;34.60;;;;;;20745;6793;117762;-90
2022/03/05 06:28:58;;;;;;;12.23;10.67;;;2.50;34.90;;;;;;20736;6780;121058;-89
2022/03/05 06:31:24;;;;;;;12.30;11.00;;;2.40;35.20;;;;;;20766;6778;117516;-88
2022/03/05 06:33:59;;;;;;;13.50;10.63;;;2.40;35.40;;;;;;20802;6766;117158;-90
2022/03/05 06:36:35;;;;;;;15.50;13.97;;;2.40;35.60;;;;;;20530;6736;308611;-89
2022/03/05 06:39:11;;;;;;;12.97;11.60;;;2.80;36.00;;;;;;20897;6737;117125;-89
2022/03/05 06:55:23;;;;;;;13.53;11.50;;;3.00;35.10;;;;;;21461;6515;90097;31
2022/03/05 06:57:48;;;;;;;14.60;11.67;;;3.00;35.10;;;;;;20731;6806;119083;31
2022/03/05 07:00:14;;;;;;;16.48;14.77;;;3.00;35.10;;;;;;20497;6859;308833;31
2022/03/05 07:02:39;;;;;;;17.20;12.80;;;3.50;35.50;;;;;;20689;6859;120673;31
2022/03/05 07:05:05;;;;;;;17.33;13.00;;;3.70;34.90;;;;;;20695;6872;117913;31
2022/03/05 07:07:30;;;;;;;17.23;12.40;;;3.70;34.70;;;;;;20685;6862;119452;31
2022/03/05 07:16:30;;;;;;;17.90;16.15;;;4.30;34.60;;;;;;18573;7349;339001;-89
2022/03/05 07:19:16;;;;;;;;;;;;;;;;;;;;;
2022/03/05 08:18:58;;;;;;;16.33;14.53;;;5.60;33.50;;;;;;21005;6578;129078;-87
2022/03/05 08:21:26;;;;;;;18.67;16.97;;;5.70;33.60;;;;;;20646;6798;309820;-84
2022/03/05 08:23:49;;;;;;;20.10;18.17;;;6.10;32.80;;;;;;20676;6792;305737;-84
2022/03/05 08:26:15;;;;;;;18.20;16.37;;;6.70;31.90;;;;;;20861;6797;117047;-86
2022/03/05 08:28:43;;;;;;;17.50;15.50;;;7.00;31.60;;;;;;20707;6832;119444;-87
2022/03/05 08:31:11;;;;;;;18.50;16.60;;;7.00;31.60;;;;;;20540;6838;307214;-88
2022/03/05 08:33:35;;;;;;;19.97;17.97;;;7.30;30.90;;;;;;20513;6846;290238;-89
2022/03/05 08:36:01;;;;;;;19.63;14.67;;;7.70;30.10;;;;;;20716;6846;117394;-87
2022/03/05 08:38:31;;;;;;;19.03;17.13;;;7.80;30.10;;;;;;20512;6848;290818;-87
2022/03/05 08:40:55;;;;;;;19.77;17.87;;;8.10;29.80;;;;;;20474;6848;306477;-88
2022/03/05 08:43:20;;;;;;;22.25;20.08;;;8.40;29.60;;;;;;20476;6849;279109;-90
2022/03/05 08:45:47;;;;;;;18.50;16.70;;;8.70;29.50;;;;;;20499;6849;307627;-89
2022/03/05 08:48:13;;;;;;;16.80;15.00;;;9.00;28.90;;;;;;20684;6858;118094;-87
2022/03/05 08:50:38;;;;;;;23.25;18.62;;;8.90;28.80;;;;;;20681;6849;122738;-86
2022/03/05 08:53:04;;;;;;;20.40;18.47;;;8.70;29.10;;;;;;20502;6846;294059;-87
2022/03/05 08:55:30;;;;;;;19.02;14.90;;;8.70;29.10;;;;;;20724;6846;117518;-88
2022/03/05 08:57:55;;;;;;;18.87;16.63;;;8.70;29.30;;;;;;20720;6846;121493;-87
2022/03/05 09:00:21;;;;;;;18.08;16.40;;;8.60;29.60;;;;;;20510;6846;280362;-87
2022/03/05 09:02:46;;;;;;;18.93;17.03;;;8.80;29.40;;;;;;20475;6846;278663;-88
2022/03/05 09:05:14;;;;;;;17.65;16.10;;;9.20;29.10;;;;;;20517;6846;311463;-89
2022/03/05 09:07:37;;;;;;;18.08;16.40;;;9.60;29.30;;;;;;20503;6846;308563;-87
2022/03/05 09:10:06;;;;;;;17.90;16.20;;;9.80;28.30;;;;;;20478;6846;311313;-87
2022/03/05 09:12:32;;;;;;;17.27;14.80;;;10.00;27.50;;;;;;20410;6846;310825;-88
2022/03/05 09:14:57;;;;;;;16.48;14.77;;;10.20;27.10;;;;;;20707;6846;117626;-89
2022/03/05 09:17:24;;;;;;;15.90;14.20;;;10.10;27.00;;;;;;20691;6846;118696;-87
2022/03/05 09:19:53;;;;;;;14.47;12.97;;;9.70;28.10;;;;;;20720;6846;118532;-89
2022/03/05 09:22:17;;;;;;;18.97;17.20;;;9.40;28.40;;;;;;20510;6844;278923;-87
2022/03/05 09:24:42;;;;;;;20.62;18.83;;;9.40;28.40;;;;;;20501;6844;336312;-87
2022/03/05 09:27:09;;;;;;;25.67;23.27;;;9.60;28.60;;;;;;20737;6844;118087;-86
2022/03/05 09:29:34;;;;;;;15.68;13.95;;;9.60;28.50;;;;;;20736;6842;117562;-87
2022/03/05 09:32:00;;;;;;;15.17;13.03;;;9.40;28.60;;;;;;20740;6843;118672;-86
2022/03/05 09:34:26;;;;;;;16.02;13.62;;;9.20;28.80;;;;;;20730;6843;117292;-86
2022/03/05 09:36:52;;;;;;;15.25;13.82;;;9.10;28.90;;;;;;20502;6843;307204;-88
2022/03/05 09:39:19;;;;;;;16.47;14.07;;;9.30;28.80;;;;;;20712;6843;121153;-86
2022/03/05 09:41:46;;;;;;;15.23;13.27;;;9.40;29.10;;;;;;20728;6843;117887;-86
2022/03/05 09:44:12;;;;;;;16.03;12.60;;;9.30;28.90;;;;;;20729;6843;117348;-85
2022/03/05 09:46:41;;;;;;;16.05;14.45;;;9.30;28.90;;;;;;20491;6843;329085;-86
2022/03/05 09:49:07;;;;;;;15.00;13.30;;;9.60;29.00;;;;;;20503;6844;291484;-87
2022/03/05 09:51:33;;;;;;;12.47;11.37;;;10.10;28.00;;;;;;20525;6844;307027;-85
2022/03/05 09:53:58;;;;;;;10.90;10.00;;;10.60;26.40;;;;;;20518;6844;307596;-88
2022/03/05 09:56:24;;;;;;;10.07;9.07;;;11.10;25.50;;;;;;20715;6844;117922;-87
2022/03/05 09:58:52;;;;;;;10.07;9.27;;;11.20;25.50;;;;;;20495;6846;311241;-87
2022/03/05 10:01:18;;;;;;;8.67;7.97;;;11.50;24.90;;;;;;20731;6844;118145;-88
2022/03/05 10:03:52;;;;;;;8.97;8.17;;;11.40;24.80;;;;;;20739;6844;117213;-88
2022/03/05 10:06:18;;;;;;;9.50;8.80;;;11.40;24.60;;;;;;20521;6844;278611;-91
2022/03/05 10:08:43;;;;;;;9.67;8.83;;;11.50;23.60;;;;;;20500;6844;278974;-89
2022/03/05 10:11:12;;;;;;;9.10;8.40;;;11.70;23.20;;;;;;20517;6844;313520;-90
2022/03/05 10:13:36;;;;;;;7.77;7.17;;;11.90;22.60;;;;;;20724;6843;114139;-90
2022/03/05 10:16:03;;;;;;;8.50;7.85;;;11.80;22.70;;;;;;20539;6844;279627;-89
2022/03/05 10:18:35;;;;;;;8.43;7.73;;;11.70;22.30;;;;;;20545;6831;278400;-88
2022/03/05 10:21:02;;;;;;;9.67;8.87;;;11.80;21.50;;;;;;20753;6831;117387;-89
2022/03/05 10:23:32;;;;;;;7.13;6.63;;;11.60;22.10;;;;;;20698;6831;117992;-87
2022/03/05 10:25:56;;;;;;;7.65;7.05;;;11.20;22.40;;;;;;20551;6831;336834;-87
2022/03/05 10:28:21;;;;;;;7.10;6.57;;;11.10;21.70;;;;;;20584;6831;305469;-87
2022/03/05 10:31:04;;;;;;;29.67;19.08;;;11.30;21.80;;;;;;20804;6831;121137;-91
2022/03/05 10:33:29;;;;;;;9.60;8.70;;;11.20;21.70;;;;;;20610;6831;319008;-86
2022/03/05 10:35:55;;;;;;;8.32;7.72;;;11.10;21.70;;;;;;20597;6831;307580;-85
2022/03/05 10:38:20;;;;;;;7.25;6.68;;;11.30;21.70;;;;;;20807;6831;117251;-87
2022/03/05 10:40:52;;;;;;;6.67;6.10;;;11.20;21.80;;;;;;20831;6829;116537;-88
2022/03/05 10:43:18;;;;;;;8.02;7.43;;;11.10;22.10;;;;;;20626;6830;337755;-87
2022/03/05 10:45:54;;;;;;;7.68;7.03;;;11.20;22.00;;;;;;20625;6830;279790;-89
2022/03/05 10:48:22;;;;;;;7.67;7.17;;;11.50;21.90;;;;;;20622;6831;276227;-88
2022/03/05 10:50:48;;;;;;;6.80;6.20;;;11.80;21.30;;;;;;20774;6831;117154;-87
2022/03/05 10:53:14;;;;;;;7.40;6.80;;;11.80;21.70;;;;;;20753;6831;117376;-86
2022/03/05 10:55:39;;;;;;;9.40;8.73;;;11.50;21.70;;;;;;20552;6831;339989;-88
2022/03/05 10:58:13;;;;;;;7.68;7.18;;;11.80;21.80;;;;;;20565;6831;336734;-83
2022/03/05 11:00:36;;;;;;;9.27;8.57;;;11.70;21.70;;;;;;20753;6831;117620;-85
2022/03/05 11:03:03;;;;;;;7.67;7.10;;;11.70;22.00;;;;;;20555;6833;312935;-84
2022/03/05 11:05:29;;;;;;;7.85;7.35;;;11.80;21.90;;;;;;20551;6834;311073;-87
2022/03/05 11:07:55;;;;;;;7.57;7.07;;;12.00;21.70;;;;;;20530;6834;333584;-87
2022/03/05 11:10:20;;;;;;;7.82;7.32;;;12.20;21.80;;;;;;20789;6834;117194;-89
2022/03/05 11:12:51;;;;;;;6.40;5.90;;;12.20;21.90;;;;;;20748;6834;118132;-89
2022/03/05 11:15:13;;;;;;;6.87;6.37;;;12.00;22.00;;;;;;20755;6834;117234;-92
2022/03/05 11:17:38;;;;;;;8.27;7.43;;;11.80;22.20;;;;;;20769;6834;117161;-90
2022/03/05 11:20:04;;;;;;;9.82;8.60;;;11.70;22.40;;;;;;20804;6834;118362;-95
2022/03/05 11:22:29;;;;;;;6.93;6.33;;;11.50;22.40;;;;;;20807;6834;116704;-94
2022/03/05 11:24:58;;;;;;;7.13;6.53;;;11.30;22.30;;;;;;20804;6834;116369;-94
2022/03/05 11:27:23;;;;;;;6.40;5.90;;;11.20;23.10;;;;;;20816;6834;118375;-88
2022/03/05 11:29:59;;;;;;;7.73;7.03;;;11.10;22.70;;;;;;20842;6834;69662;-88
2022/03/05 11:32:29;;;;;;;5.93;5.53;;;11.00;22.60;;;;;;20796;6834;115974;-89
2022/03/05 11:34:55;;;;;;;7.40;6.80;;;11.00;22.60;;;;;;20523;6834;307916;-89
2022/03/05 11:37:24;;;;;;;7.35;6.68;;;11.20;22.10;;;;;;20764;6834;117223;-88
2022/03/05 11:39:50;;;;;;;7.83;7.23;;;11.10;22.00;;;;;;20729;6834;117178;-87
2022/03/05 11:42:28;;;;;;;7.40;6.80;;;11.10;22.30;;;;;;20752;6834;117636;-86
2022/03/05 11:44:54;;;;;;;7.37;6.87;;;11.00;22.40;;;;;;20413;6841;323816;-88
2022/03/05 11:47:32;;;;;;;7.80;7.22;;;11.10;22.10;;;;;;20540;6841;308509;-88
2022/03/05 11:49:58;;;;;;;6.93;6.33;;;11.50;22.20;;;;;;20720;6841;116671;-91
2022/03/05 11:52:41;;;;;;;8.15;7.40;;;11.70;22.30;;;;;;20530;6839;308030;-93
2022/03/05 11:55:20;;;;;;;7.97;7.27;;;11.60;21.80;;;;;;20716;6840;117155;-89
2022/03/05 11:57:55;;;;;;;7.60;7.00;;;11.60;21.90;;;;;;20769;6840;116583;-94
2022/03/05 12:00:20;;;;;;;7.40;6.77;;;11.30;22.00;;;;;;20816;6840;116497;-92
2022/03/05 12:02:46;;;;;;;7.27;6.67;;;11.00;22.20;;;;;;20812;6841;117351;-90
2022/03/05 12:05:31;;;;;;;7.80;7.10;;;10.80;22.40;;;;;;20793;6841;116517;-89
2022/03/05 12:07:57;;;;;;;8.67;8.00;;;10.70;22.40;;;;;;20356;6841;310017;-88
2022/03/05 12:10:23;;;;;;;7.10;6.60;;;10.80;21.80;;;;;;20560;6841;311427;-86
2022/03/05 12:12:57;;;;;;;7.20;6.63;;;11.10;22.40;;;;;;20723;6841;118181;-91
2022/03/05 12:15:33;;;;;;;7.93;7.27;;;11.10;22.20;;;;;;20308;6841;307985;-92
2022/03/05 12:18:00;;;;;;;8.33;7.63;;;11.30;22.40;;;;;;20499;6841;310391;-88
2022/03/05 12:20:24;;;;;;;8.35;7.75;;;11.60;21.40;;;;;;20744;6841;117597;-90
2022/03/05 12:23:01;;;;;;;7.60;7.00;;;11.60;21.60;;;;;;20694;6841;117459;-86
2022/03/05 12:25:25;;;;;;;7.47;6.97;;;11.30;21.90;;;;;;20701;6841;119279;-87
2022/03/05 12:27:51;;;;;;;7.95;6.68;;;11.10;22.10;;;;;;20710;6841;117587;-88
2022/03/05 12:30:18;;;;;;;9.05;8.25;;;10.90;22.30;;;;;;20509;6841;337242;-89
2022/03/05 12:32:45;;;;;;;7.93;7.43;;;11.20;22.30;;;;;;20485;6841;279104;-90
2022/03/05 12:35:10;;;;;;;9.83;8.87;;;11.10;22.20;;;;;;20714;6841;117345;-89
2022/03/05 12:37:36;;;;;;;8.40;7.70;;;10.80;22.10;;;;;;20719;6841;118382;-89
2022/03/05 12:40:05;;;;;;;8.10;7.50;;;10.80;22.10;;;;;;20717;6841;116950;-88
2022/03/05 12:42:45;;;;;;;9.10;8.48;;;10.60;22.30;;;;;;20509;6841;322229;-89
2022/03/05 12:45:24;;;;;;;9.03;8.23;;;10.50;22.30;;;;;;20714;6841;117785;-86
2022/03/05 12:47:49;;;;;;;7.73;7.17;;;10.50;22.30;;;;;;20716;6834;117822;-92
2022/03/05 12:50:28;;;;;;;7.90;7.30;;;10.30;22.70;;;;;;20807;6834;117168;-91
2022/03/05 12:53:15;;;;;;;8.88;8.27;;;10.20;22.90;;;;;;20468;6841;309642;-89
2022/03/05 12:55:42;;;;;;;8.47;7.77;;;10.50;22.90;;;;;;20622;6857;117382;-88
2022/03/05 12:58:11;;;;;;;9.63;8.90;;;10.50;22.70;;;;;;20419;6861;322303;-87
2022/03/05 13:00:37;;;;;;;9.80;9.03;;;10.50;22.40;;;;;;20396;6861;283275;-86
2022/03/05 13:03:02;;;;;;;10.05;9.10;;;10.70;22.00;;;;;;20592;6869;117244;-84
2022/03/05 13:05:28;;;;;;;9.83;8.97;;;10.50;22.10;;;;;;20460;6843;337526;-88
2022/03/05 13:07:53;;;;;;;9.00;8.20;;;10.50;22.70;;;;;;20448;6851;300411;-90
2022/03/05 13:10:19;;;;;;;8.90;7.97;;;10.60;22.70;;;;;;20670;6860;117024;-89
2022/03/05 13:12:45;;;;;;;11.82;10.93;;;10.50;22.50;;;;;;20430;6860;336794;-89
2022/03/05 13:15:10;;;;;;;8.70;8.07;;;10.50;22.60;;;;;;20688;6851;117795;-87
2022/03/05 13:17:36;;;;;;;9.52;8.82;;;10.50;22.60;;;;;;20462;6846;342213;-87
2022/03/05 13:20:01;;;;;;;8.68;8.07;;;10.70;22.80;;;;;;20393;6861;295100;-89
2022/03/05 13:22:27;;;;;;;9.40;8.60;;;10.90;22.30;;;;;;20637;6860;117731;-91
2022/03/05 13:24:52;;;;;;;10.33;9.43;;;10.90;22.40;;;;;;20450;6860;337248;-86
2022/03/05 13:27:25;;;;;;;14.40;13.13;;;11.00;22.50;;;;;;20478;6860;278279;-86
2022/03/05 13:29:53;;;;;;;8.90;8.20;;;11.20;22.00;;;;;;20686;6852;117365;-86
2022/03/05 13:32:19;;;;;;;9.63;8.83;;;11.10;22.10;;;;;;20716;6846;117484;-85
2022/03/05 13:34:44;;;;;;;8.68;7.97;;;10.80;22.20;;;;;;20639;6862;118339;-88
2022/03/05 13:37:11;;;;;;;9.63;8.93;;;10.60;22.50;;;;;;20460;6860;337243;-89
2022/03/05 13:39:37;;;;;;;9.70;8.93;;;10.90;22.20;;;;;;20479;6860;306865;-84
2022/03/05 13:42:09;;;;;;;8.33;7.73;;;10.90;22.20;;;;;;20678;6860;116282;-85
2022/03/05 13:44:35;;;;;;;9.90;9.10;;;10.90;22.40;;;;;;20457;6860;281596;-87
2022/03/05 13:47:01;;;;;;;8.97;8.27;;;11.00;22.50;;;;;;20705;6852;117896;-85
2022/03/05 13:49:28;;;;;;;8.70;8.10;;;10.90;22.20;;;;;;20733;6847;117194;-88
2022/03/05 13:51:53;;;;;;;10.70;9.80;;;10.60;22.20;;;;;;20539;6846;336390;-90
2022/03/05 13:54:37;;;;;;;9.80;9.10;;;10.60;22.40;;;;;;20517;6846;301572;-89
2022/03/05 13:57:01;;;;;;;9.17;8.47;;;10.80;22.30;;;;;;20726;6847;117431;-89
2022/03/05 13:59:43;;;;;;;10.23;9.47;;;10.70;22.90;;;;;;20523;6847;307263;-89
2022/03/05 14:02:08;;;;;;;9.93;9.23;;;10.80;22.80;;;;;;20523;6847;307368;-87
2022/03/05 14:04:34;;;;;;;10.40;9.60;;;11.10;22.10;;;;;;20735;6847;117681;-86
2022/03/05 14:07:00;;;;;;;8.80;8.00;;;11.00;22.10;;;;;;20635;6847;118772;-86